Krypton, Kentucky
Current Conditions -  °F | °C
As of 1:53 PM on Sunday 23 Nov 2014 (Local Time) from KJKL Reporting Station
Light Rain Light Rain  
Wind Chill: 57°   Ceiling: 7000
Heat Index: 57°   Visibility: 5mi
Dew Point: 47°   Wind: 7mph
Humidity: 69%   Direction: 140°SE
Pressure: 29.82"   Gusts: NA
Location:  37.31°N, 83.34°W
Report Text: KJKL 231853Z AUTO 14006KT 5SM -RA OVC070 14/08 A2982 RMK AO2 RAE1759B45 SLP093 P0001 T01390083
Loading
Personal Weather Stations






























Interactive Weather Map New forecast layout! Learn more

10-Day Weather Forecast

Advertisements
Track Severe Weather on mobile